sensor_id;sensor_type;location;lat;lon;timestamp;pressure;altitude;pressure_sealevel;temperature;humidity
48668;BME280;34453;52.198;5.004;2022-09-09T00:00:15;100847.84;;;15.26;100.00
48668;BME280;34453;52.198;5.004;2022-09-09T00:02:52;100865.75;;;15.30;100.00
48668;BME280;34453;52.198;5.004;2022-09-09T00:08:02;100852.28;;;15.25;100.00
48668;BME280;34453;52.198;5.004;2022-09-09T00:10:35;100859.69;;;15.22;100.00
48668;BME280;34453;52.198;5.004;2022-09-09T00:13:30;100860.72;;;15.21;100.00
48668;BME280;34453;52.198;5.004;2022-09-09T00:16:27;100856.56;;;15.18;100.00
48668;BME280;34453;52.198;5.004;2022-09-09T00:19:18;100865.00;;;15.13;100.00
48668;BME280;34453;52.198;5.004;2022-09-09T00:24:32;100847.19;;;15.16;100.00
48668;BME280;34453;52.198;5.004;2022-09-09T00:30:29;100849.88;;;15.07;100.00
48668;BME280;34453;52.198;5.004;2022-09-09T00:33:01;100857.31;;;14.96;100.00
48668;BME280;34453;52.198;5.004;2022-09-09T00:35:32;100851.38;;;15.02;100.00
48668;BME280;34453;52.198;5.004;2022-09-09T00:38:31;100857.00;;;14.99;100.00
48668;BME280;34453;52.198;5.004;2022-09-09T00:41:05;100860.94;;;14.95;100.00
48668;BME280;34453;52.198;5.004;2022-09-09T00:43:36;100860.59;;;14.98;100.00
48668;BME280;34453;52.198;5.004;2022-09-09T00:55:36;100849.63;;;14.78;100.00
48668;BME280;34453;52.198;5.004;2022-09-09T00:58:06;100850.44;;;14.78;100.00
48668;BME280;34453;52.198;5.004;2022-09-09T01:01:07;100855.56;;;14.71;100.00
48668;BME280;34453;52.198;5.004;2022-09-09T01:03:52;100849.31;;;14.64;100.00
48668;BME280;34453;52.198;5.004;2022-09-09T01:06:27;100851.97;;;14.64;100.00
48668;BME280;34453;52.198;5.004;2022-09-09T01:09:03;100850.13;;;14.65;100.00
48668;BME280;34453;52.198;5.004;2022-09-09T01:11:53;100849.84;;;14.60;100.00
48668;BME280;34453;52.198;5.004;2022-09-09T01:16:58;100842.59;;;14.62;100.00
48668;BME280;34453;52.198;5.004;2022-09-09T01:22:28;100845.22;;;14.62;100.00
48668;BME280;34453;52.198;5.004;2022-09-09T01:28:03;100853.09;;;14.54;100.00
48668;BME280;34453;52.198;5.004;2022-09-09T01:30:30;100848.97;;;14.51;100.00
48668;BME280;34453;52.198;5.004;2022-09-09T01:32:58;100852.44;;;14.51;100.00
48668;BME280;34453;52.198;5.004;2022-09-09T01:35:40;100844.88;;;14.48;100.00
48668;BME280;34453;52.198;5.004;2022-09-09T01:38:09;100837.31;;;14.45;100.00
48668;BME280;34453;52.198;5.004;2022-09-09T01:40:35;100835.97;;;14.49;100.00
48668;BME280;34453;52.198;5.004;2022-09-09T01:43:01;100846.50;;;14.49;100.00
48668;BME280;34453;52.198;5.004;2022-09-09T01:45:26;100841.59;;;14.46;100.00
48668;BME280;34453;52.198;5.004;2022-09-09T01:47:52;100834.03;;;14.43;100.00
48668;BME280;34453;52.198;5.004;2022-09-09T01:50:19;100838.63;;;14.58;100.00
48668;BME280;34453;52.198;5.004;2022-09-09T01:52:47;100833.84;;;14.53;100.00
48668;BME280;34453;52.198;5.004;2022-09-09T01:55:14;100828.44;;;14.46;100.00
48668;BME280;34453;52.198;5.004;2022-09-09T02:00:56;100826.28;;;14.50;100.00
48668;BME280;34453;52.198;5.004;2022-09-09T02:03:28;100830.91;;;14.56;100.00
48668;BME280;34453;52.198;5.004;2022-09-09T02:09:00;100821.69;;;14.60;100.00
48668;BME280;34453;52.198;5.004;2022-09-09T02:11:28;100820.53;;;14.63;100.00
48668;BME280;34453;52.198;5.004;2022-09-09T02:14:01;100814.59;;;14.69;100.00
48668;BME280;34453;52.198;5.004;2022-09-09T02:16:37;100823.50;;;14.68;100.00
48668;BME280;34453;52.198;5.004;2022-09-09T02:21:54;100821.03;;;14.66;100.00
48668;BME280;34453;52.198;5.004;2022-09-09T02:24:21;100821.69;;;14.60;100.00
48668;BME280;34453;52.198;5.004;2022-09-09T02:26:50;100820.03;;;14.67;100.00
48668;BME280;34453;52.198;5.004;2022-09-09T02:29:31;100819.69;;;14.70;100.00
48668;BME280;34453;52.198;5.004;2022-09-09T02:32:01;100823.81;;;14.65;100.00
48668;BME280;34453;52.198;5.004;2022-09-09T02:34:30;100820.06;;;14.59;100.00
48668;BME280;34453;52.198;5.004;2022-09-09T02:36:57;100823.19;;;14.55;100.00
48668;BME280;34453;52.198;5.004;2022-09-09T02:39:25;100817.56;;;14.58;100.00
48668;BME280;34453;52.198;5.004;2022-09-09T02:41:51;100820.88;;;14.60;100.00
48668;BME280;34453;52.198;5.004;2022-09-09T02:44:18;100812.47;;;14.56;100.00
48668;BME280;34453;52.198;5.004;2022-09-09T02:52:26;100812.66;;;14.55;100.00
48668;BME280;34453;52.198;5.004;2022-09-09T02:55:00;100801.78;;;14.58;100.00
48668;BME280;34453;52.198;5.004;2022-09-09T02:57:30;100799.00;;;14.59;100.00
48668;BME280;34453;52.198;5.004;2022-09-09T02:59:58;100798.66;;;14.54;100.00
48668;BME280;34453;52.198;5.004;2022-09-09T03:02:24;100810.16;;;14.53;100.00
48668;BME280;34453;52.198;5.004;2022-09-09T03:04:50;100798.00;;;14.52;100.00
48668;BME280;34453;52.198;5.004;2022-09-09T03:07:17;100795.03;;;14.47;100.00
48668;BME280;34453;52.198;5.004;2022-09-09T03:09:43;100800.78;;;14.50;100.00
48668;BME280;34453;52.198;5.004;2022-09-09T03:12:09;100789.94;;;14.45;100.00
48668;BME280;34453;52.198;5.004;2022-09-09T03:14:36;100791.91;;;14.43;100.00
48668;BME280;34453;52.198;5.004;2022-09-09T03:17:02;100782.38;;;14.42;100.00
48668;BME280;34453;52.198;5.004;2022-09-09T03:19:27;100789.94;;;14.45;100.00
48668;BME280;34453;52.198;5.004;2022-09-09T03:21:53;100789.94;;;14.37;100.00
48668;BME280;34453;52.198;5.004;2022-09-09T03:24:19;100789.28;;;14.35;100.00
48668;BME280;34453;52.198;5.004;2022-09-09T03:26:44;100781.06;;;14.38;100.00
48668;BME280;34453;52.198;5.004;2022-09-09T03:29:11;100798.50;;;14.39;100.00
48668;BME280;34453;52.198;5.004;2022-09-09T03:31:38;100789.28;;;14.43;100.00
48668;BME280;34453;52.198;5.004;2022-09-09T03:34:03;100792.91;;;14.42;100.00
48668;BME280;34453;52.198;5.004;2022-09-09T03:36:29;100790.97;;;14.36;100.00
48668;BME280;34453;52.198;5.004;2022-09-09T03:38:55;100781.91;;;14.39;100.00
48668;BME280;34453;52.198;5.004;2022-09-09T03:41:22;100785.19;;;14.41;100.00
48668;BME280;34453;52.198;5.004;2022-09-09T03:43:52;100784.19;;;14.42;100.00
48668;BME280;34453;52.198;5.004;2022-09-09T03:46:20;100794.56;;;14.43;100.00
48668;BME280;34453;52.198;5.004;2022-09-09T03:48:46;100799.31;;;14.40;100.00
48668;BME280;34453;52.198;5.004;2022-09-09T03:51:11;100794.88;;;14.40;100.00
48668;BME280;34453;52.198;5.004;2022-09-09T03:53:37;100790.75;;;14.38;100.00
48668;BME280;34453;52.198;5.004;2022-09-09T03:56:04;100795.38;;;14.44;100.00
48668;BME280;34453;52.198;5.004;2022-09-09T03:58:32;100792.59;;;14.37;100.00
48668;BME280;34453;52.198;5.004;2022-09-09T04:01:04;100790.44;;;14.41;100.00
48668;BME280;34453;52.198;5.004;2022-09-09T04:03:30;100791.59;;;14.38;100.00
48668;BME280;34453;52.198;5.004;2022-09-09T04:05:58;100781.41;;;14.43;100.00
48668;BME280;34453;52.198;5.004;2022-09-09T04:08:25;100779.44;;;14.37;100.00
48668;BME280;34453;52.198;5.004;2022-09-09T04:10:51;100784.03;;;14.43;100.00
48668;BME280;34453;52.198;5.004;2022-09-09T04:13:17;100783.53;;;14.40;100.00
48668;BME280;34453;52.198;5.004;2022-09-09T04:15:44;100779.44;;;14.37;100.00
48668;BME280;34453;52.198;5.004;2022-09-09T04:18:10;100773.31;;;14.45;100.00
48668;BME280;34453;52.198;5.004;2022-09-09T04:20:37;100773.34;;;14.37;100.00
48668;BME280;34453;52.198;5.004;2022-09-09T04:23:03;100770.88;;;14.35;100.00
48668;BME280;34453;52.198;5.004;2022-09-09T04:25:28;100771.03;;;14.42;100.00
48668;BME280;34453;52.198;5.004;2022-09-09T04:27:55;100768.53;;;14.48;100.00
48668;BME280;34453;52.198;5.004;2022-09-09T04:30:20;100768.88;;;14.45;100.00
48668;BME280;34453;52.198;5.004;2022-09-09T04:32:46;100761.66;;;14.39;100.00
48668;BME280;34453;52.198;5.004;2022-09-09T04:35:12;100761.97;;;14.44;100.00
48668;BME280;34453;52.198;5.004;2022-09-09T04:37:37;100754.06;;;14.44;100.00
48668;BME280;34453;52.198;5.004;2022-09-09T04:40:02;100759.69;;;14.41;100.00
48668;BME280;34453;52.198;5.004;2022-09-09T04:42:28;100752.09;;;14.38;100.00
48668;BME280;34453;52.198;5.004;2022-09-09T04:44:53;100751.94;;;14.40;100.00
48668;BME280;34453;52.198;5.004;2022-09-09T04:47:19;100740.94;;;14.36;100.00
48668;BME280;34453;52.198;5.004;2022-09-09T04:49:45;100743.91;;;14.33;100.00
48668;BME280;34453;52.198;5.004;2022-09-09T04:52:10;100757.41;;;14.30;100.00
48668;BME280;34453;52.198;5.004;2022-09-09T04:54:36;100759.38;;;14.36;100.00
48668;BME280;34453;52.198;5.004;2022-09-09T04:57:02;100765.25;;;14.38;100.00
48668;BME280;34453;52.198;5.004;2022-09-09T04:59:27;100746.69;;;14.31;100.00
48668;BME280;34453;52.198;5.004;2022-09-09T05:01:53;100748.19;;;14.34;100.00
48668;BME280;34453;52.198;5.004;2022-09-09T05:04:20;100749.31;;;14.40;100.00
48668;BME280;34453;52.198;5.004;2022-09-09T05:06:46;100746.84;;;14.38;100.00
48668;BME280;34453;52.198;5.004;2022-09-09T05:09:11;100753.78;;;14.31;100.00
48668;BME280;34453;52.198;5.004;2022-09-09T05:11:37;100743.75;;;14.35;100.00
48668;BME280;34453;52.198;5.004;2022-09-09T05:14:03;100750.47;;;14.29;100.00
48668;BME280;34453;52.198;5.004;2022-09-09T05:16:30;100753.44;;;14.34;100.00
48668;BME280;34453;52.198;5.004;2022-09-09T05:18:55;100757.06;;;14.33;100.00
48668;BME280;34453;52.198;5.004;2022-09-09T05:21:23;100755.44;;;14.32;100.00
48668;BME280;34453;52.198;5.004;2022-09-09T05:23:50;100752.94;;;14.39;100.00
48668;BME280;34453;52.198;5.004;2022-09-09T05:26:18;100753.75;;;14.39;100.00
48668;BME280;34453;52.198;5.004;2022-09-09T05:28:45;100757.06;;;14.33;100.00
48668;BME280;34453;52.198;5.004;2022-09-09T05:31:14;100760.19;;;14.37;100.00
48668;BME280;34453;52.198;5.004;2022-09-09T05:33:41;100752.75;;;14.40;100.00
48668;BME280;34453;52.198;5.004;2022-09-09T05:36:13;100734.19;;;14.42;100.00
48668;BME280;34453;52.198;5.004;2022-09-09T05:38:40;100744.19;;;14.46;100.00
48668;BME280;34453;52.198;5.004;2022-09-09T05:41:06;100740.25;;;14.42;100.00
48668;BME280;34453;52.198;5.004;2022-09-09T05:43:33;100743.53;;;14.44;100.00
48668;BME280;34453;52.198;5.004;2022-09-09T05:46:03;100744.19;;;14.46;100.00
48668;BME280;34453;52.198;5.004;2022-09-09T05:48:37;100740.91;;;14.52;100.00
48668;BME280;34453;52.198;5.004;2022-09-09T05:51:04;100740.91;;;14.52;100.00
48668;BME280;34453;52.198;5.004;2022-09-09T05:53:30;100748.47;;;14.56;100.00
48668;BME280;34453;52.198;5.004;2022-09-09T05:56:06;100756.72;;;14.61;100.00
48668;BME280;34453;52.198;5.004;2022-09-09T05:58:33;100743.06;;;14.57;100.00
48668;BME280;34453;52.198;5.004;2022-09-09T06:01:04;100741.53;;;14.63;100.00
48668;BME280;34453;52.198;5.004;2022-09-09T06:03:30;100741.53;;;14.63;100.00
48668;BME280;34453;52.198;5.004;2022-09-09T06:06:01;100743.63;;;14.76;100.00
48668;BME280;34453;52.198;5.004;2022-09-09T06:08:27;100742.97;;;14.74;100.00
48668;BME280;34453;52.198;5.004;2022-09-09T06:10:53;100742.97;;;14.74;100.00
48668;BME280;34453;52.198;5.004;2022-09-09T06:13:18;100745.75;;;14.80;100.00
48668;BME280;34453;52.198;5.004;2022-09-09T06:15:51;100752.81;;;14.88;100.00
48668;BME280;34453;52.198;5.004;2022-09-09T06:18:18;100747.50;;;14.96;100.00
48668;BME280;34453;52.198;5.004;2022-09-09T06:20:54;100750.78;;;14.98;100.00
48668;BME280;34453;52.198;5.004;2022-09-09T06:23:19;100751.25;;;15.02;100.00
48668;BME280;34453;52.198;5.004;2022-09-09T06:25:45;100743.34;;;15.10;100.00
48668;BME280;34453;52.198;5.004;2022-09-09T06:28:11;100750.53;;;15.16;100.00
48668;BME280;34453;52.198;5.004;2022-09-09T06:30:36;100745.25;;;15.16;100.00
48668;BME280;34453;52.198;5.004;2022-09-09T06:33:02;100744.63;;;15.14;100.00
48668;BME280;34453;52.198;5.004;2022-09-09T06:35:28;100744.03;;;15.27;100.00
48668;BME280;34453;52.198;5.004;2022-09-09T06:37:54;100741.59;;;15.25;100.00
48668;BME280;34453;52.198;5.004;2022-09-09T06:40:19;100738.25;;;15.31;100.00
48668;BME280;34453;52.198;5.004;2022-09-09T06:42:45;100733.56;;;15.42;100.00
48668;BME280;34453;52.198;5.004;2022-09-09T06:45:10;100737.50;;;15.46;100.00
48668;BME280;34453;52.198;5.004;2022-09-09T06:47:36;100737.16;;;15.49;100.00
48668;BME280;34453;52.198;5.004;2022-09-09T06:50:01;100737.78;;;15.51;100.00
48668;BME280;34453;52.198;5.004;2022-09-09T06:52:27;100733.13;;;15.61;100.00
48668;BME280;34453;52.198;5.004;2022-09-09T06:54:53;100733.88;;;15.70;100.00
48668;BME280;34453;52.198;5.004;2022-09-09T06:57:19;100728.13;;;15.66;100.00
48668;BME280;34453;52.198;5.004;2022-09-09T06:59:44;100746.41;;;15.91;100.00
48668;BME280;34453;52.198;5.004;2022-09-09T07:02:09;100733.16;;;15.99;100.00
48668;BME280;34453;52.198;5.004;2022-09-09T07:04:35;100729.59;;;15.92;100.00
48668;BME280;34453;52.198;5.004;2022-09-09T07:07:02;100735.31;;;15.95;100.00
48668;BME280;34453;52.198;5.004;2022-09-09T07:09:28;100739.13;;;15.93;100.00
48668;BME280;34453;52.198;5.004;2022-09-09T07:11:54;100732.94;;;15.86;100.00
48668;BME280;34453;52.198;5.004;2022-09-09T07:14:20;100740.44;;;15.97;100.00
48668;BME280;34453;52.198;5.004;2022-09-09T07:16:47;100733.88;;;15.93;100.00
48668;BME280;34453;52.198;5.004;2022-09-09T07:19:13;100734.97;;;15.99;100.00
48668;BME280;34453;52.198;5.004;2022-09-09T07:21:39;100739.88;;;16.02;100.00
48668;BME280;34453;52.198;5.004;2022-09-09T07:24:06;100741.88;;;16.00;100.00
48668;BME280;34453;52.198;5.004;2022-09-09T07:26:34;100738.88;;;16.03;100.00
48668;BME280;34453;52.198;5.004;2022-09-09T07:29:00;100738.97;;;16.09;100.00
48668;BME280;34453;52.198;5.004;2022-09-09T07:31:31;100741.34;;;16.04;100.00
48668;BME280;34453;52.198;5.004;2022-09-09T07:33:58;100739.50;;;16.05;100.00
48668;BME280;34453;52.198;5.004;2022-09-09T07:36:29;100736.97;;;16.11;100.00
48668;BME280;34453;52.198;5.004;2022-09-09T07:39:01;100737.81;;;16.12;100.00
48668;BME280;34453;52.198;5.004;2022-09-09T07:41:30;100742.84;;;16.22;100.00
48668;BME280;34453;52.198;5.004;2022-09-09T07:43:57;100745.75;;;16.27;100.00
48668;BME280;34453;52.198;5.004;2022-09-09T07:46:25;100745.84;;;16.19;100.00
48668;BME280;34453;52.198;5.004;2022-09-09T07:48:53;100751.13;;;16.19;100.00
48668;BME280;34453;52.198;5.004;2022-09-09T07:51:25;100749.19;;;16.12;100.00
48668;BME280;34453;52.198;5.004;2022-09-09T07:54:00;100739.81;;;16.10;100.00
48668;BME280;34453;52.198;5.004;2022-09-09T07:56:28;100737.34;;;16.08;100.00
48668;BME280;34453;52.198;5.004;2022-09-09T07:58:55;100748.72;;;16.09;100.00
48668;BME280;34453;52.198;5.004;2022-09-09T08:01:27;100750.66;;;16.15;100.00
48668;BME280;34453;52.198;5.004;2022-09-09T08:04:01;100747.41;;;16.28;100.00
48668;BME280;34453;52.198;5.004;2022-09-09T08:06:29;100743.75;;;16.29;100.00
48668;BME280;34453;52.198;5.004;2022-09-09T08:08:55;100742.84;;;16.36;100.00
48668;BME280;34453;52.198;5.004;2022-09-09T08:11:23;100733.63;;;16.47;100.00
48668;BME280;34453;52.198;5.004;2022-09-09T08:13:50;100735.66;;;16.60;100.00
48668;BME280;34453;52.198;5.004;2022-09-09T08:16:24;100738.19;;;16.68;100.00
48668;BME280;34453;52.198;5.004;2022-09-09T08:18:51;100734.19;;;16.72;100.00
48668;BME280;34453;52.198;5.004;2022-09-09T08:21:23;100725.63;;;16.70;100.00
48668;BME280;34453;52.198;5.004;2022-09-09T08:23:51;100732.81;;;16.91;100.00
48668;BME280;34453;52.198;5.004;2022-09-09T08:26:19;100730.28;;;16.83;100.00
48668;BME280;34453;52.198;5.004;2022-09-09T08:28:52;100728.53;;;16.90;100.00
48668;BME280;34453;52.198;5.004;2022-09-09T08:31:23;100722.25;;;16.91;100.00
48668;BME280;34453;52.198;5.004;2022-09-09T08:33:50;100735.03;;;16.88;100.00
48668;BME280;34453;52.198;5.004;2022-09-09T08:36:21;100733.94;;;16.82;100.00
48668;BME280;34453;52.198;5.004;2022-09-09T08:38:57;100744.84;;;16.79;100.00
48668;BME280;34453;52.198;5.004;2022-09-09T08:46:45;100749.56;;;16.69;100.00
48668;BME280;34453;52.198;5.004;2022-09-09T08:52:01;100751.22;;;16.70;100.00
48668;BME280;34453;52.198;5.004;2022-09-09T08:54:32;100752.84;;;16.71;100.00
48668;BME280;34453;52.198;5.004;2022-09-09T08:56:58;100756.13;;;16.73;100.00
48668;BME280;34453;52.198;5.004;2022-09-09T08:59:24;100754.59;;;16.64;100.00
48668;BME280;34453;52.198;5.004;2022-09-09T09:05:15;100749.78;;;16.82;100.00
48668;BME280;34453;52.198;5.004;2022-09-09T09:12:41;100746.59;;;16.87;100.00
48668;BME280;34453;52.198;5.004;2022-09-09T09:15:18;100750.59;;;16.83;100.00
48668;BME280;34453;52.198;5.004;2022-09-09T09:17:45;100756.72;;;16.83;100.00
48668;BME280;34453;52.198;5.004;2022-09-09T09:20:19;100763.69;;;16.76;100.00
48668;BME280;34453;52.198;5.004;2022-09-09T09:22:51;100763.03;;;16.74;100.00
48668;BME280;34453;52.198;5.004;2022-09-09T09:25:22;100773.25;;;16.77;100.00
48668;BME280;34453;52.198;5.004;2022-09-09T09:28:13;100771.25;;;16.79;100.00
48668;BME280;34453;52.198;5.004;2022-09-09T09:36:09;100760.34;;;16.82;100.00
48668;BME280;34453;52.198;5.004;2022-09-09T09:38:37;100767.47;;;16.82;100.00
48668;BME280;34453;52.198;5.004;2022-09-09T09:41:03;100762.81;;;16.84;100.00
48668;BME280;34453;52.198;5.004;2022-09-09T09:43:40;100772.19;;;16.86;100.00
48668;BME280;34453;52.198;5.004;2022-09-09T09:46:19;100773.47;;;16.90;100.00
48668;BME280;34453;52.198;5.004;2022-09-09T09:49:02;100761.88;;;16.91;100.00
48668;BME280;34453;52.198;5.004;2022-09-09T09:51:31;100773.88;;;17.09;100.00
48668;BME280;34453;52.198;5.004;2022-09-09T09:56:39;100756.75;;;17.05;100.00
48668;BME280;34453;52.198;5.004;2022-09-09T09:59:06;100754.41;;;17.10;100.00
48668;BME280;34453;52.198;5.004;2022-09-09T10:01:44;100756.91;;;17.18;100.00
48668;BME280;34453;52.198;5.004;2022-09-09T10:04:19;100742.88;;;17.17;100.00
48668;BME280;34453;52.198;5.004;2022-09-09T10:06:49;100751.91;;;17.23;100.00
48668;BME280;34453;52.198;5.004;2022-09-09T10:09:29;100753.28;;;17.40;100.00
48668;BME280;34453;52.198;5.004;2022-09-09T10:18:04;100746.22;;;17.26;100.00
48668;BME280;34453;52.198;5.004;2022-09-09T10:37:41;100760.44;;;18.11;100.00
48668;BME280;34453;52.198;5.004;2022-09-09T10:40:26;100757.03;;;18.17;100.00
48668;BME280;34453;52.198;5.004;2022-09-09T10:56:43;100733.81;;;17.91;100.00
48668;BME280;34453;52.198;5.004;2022-09-09T10:59:16;100733.00;;;17.91;100.00
48668;BME280;34453;52.198;5.004;2022-09-09T11:02:45;100740.38;;;17.95;100.00
48668;BME280;34453;52.198;5.004;2022-09-09T11:04:48;100733.78;;;17.85;100.00
48668;BME280;34453;52.198;5.004;2022-09-09T11:07:42;100734.16;;;17.81;100.00
48668;BME280;34453;52.198;5.004;2022-09-09T11:13:11;100737.41;;;17.40;100.00
48668;BME280;34453;52.198;5.004;2022-09-09T11:15:46;100748.31;;;17.52;100.00
48668;BME280;34453;52.198;5.004;2022-09-09T11:18:21;100749.53;;;17.50;100.00
48668;BME280;34453;52.198;5.004;2022-09-09T11:20:59;100749.53;;;17.50;100.00
48668;BME280;34453;52.198;5.004;2022-09-09T11:23:49;100742.28;;;17.37;100.00
48668;BME280;34453;52.198;5.004;2022-09-09T11:26:25;100741.72;;;17.42;100.00
48668;BME280;34453;52.198;5.004;2022-09-09T11:29:05;100744.47;;;17.33;100.00
48668;BME280;34453;52.198;5.004;2022-09-09T11:31:52;100748.69;;;17.28;100.00
48668;BME280;34453;52.198;5.004;2022-09-09T11:40:06;100765.72;;;17.25;100.00
48668;BME280;34453;52.198;5.004;2022-09-09T11:42:33;100769.47;;;17.16;100.00
48668;BME280;34453;52.198;5.004;2022-09-09T11:45:09;100763.22;;;17.02;100.00
48668;BME280;34453;52.198;5.004;2022-09-09T11:47:36;100767.06;;;16.99;100.00
48668;BME280;34453;52.198;5.004;2022-09-09T11:52:39;100767.28;;;16.83;100.00
48668;BME280;34453;52.198;5.004;2022-09-09T11:55:25;100766.31;;;16.76;100.00
48668;BME280;34453;52.198;5.004;2022-09-09T11:58:21;100776.53;;;16.79;100.00
48668;BME280;34453;52.198;5.004;2022-09-09T12:00:49;100769.38;;;16.88;100.00
48668;BME280;34453;52.198;5.004;2022-09-09T12:06:25;100770.13;;;17.18;100.00
48668;BME280;34453;52.198;5.004;2022-09-09T12:09:08;100769.94;;;17.19;100.00
48668;BME280;34453;52.198;5.004;2022-09-09T12:11:36;100767.63;;;17.31;100.00
48668;BME280;34453;52.198;5.004;2022-09-09T12:14:03;100751.31;;;17.49;100.00
48668;BME280;34453;52.198;5.004;2022-09-09T12:16:38;100751.66;;;17.61;100.00
48668;BME280;34453;52.198;5.004;2022-09-09T12:19:18;100745.22;;;17.49;100.00
48668;BME280;34453;52.198;5.004;2022-09-09T12:27:28;100750.34;;;17.50;100.00
48668;BME280;34453;52.198;5.004;2022-09-09T12:30:07;100749.00;;;17.39;100.00
48668;BME280;34453;52.198;5.004;2022-09-09T12:32:35;100763.22;;;17.38;100.00
48668;BME280;34453;52.198;5.004;2022-09-09T12:37:56;100743.78;;;17.46;100.00
48668;BME280;34453;52.198;5.004;2022-09-09T12:40:30;100745.16;;;17.42;100.00
48668;BME280;34453;52.198;5.004;2022-09-09T12:42:58;100748.63;;;17.43;100.00
48668;BME280;34453;52.198;5.004;2022-09-09T12:45:30;100750.28;;;17.44;100.00
48668;BME280;34453;52.198;5.004;2022-09-09T12:48:08;100735.72;;;17.33;100.00
48668;BME280;34453;52.198;5.004;2022-09-09T12:50:43;100736.78;;;17.38;100.00
48668;BME280;34453;52.198;5.004;2022-09-09T12:53:30;100746.38;;;17.39;100.00
48668;BME280;34453;52.198;5.004;2022-09-09T12:56:09;100748.56;;;17.36;100.00
48668;BME280;34453;52.198;5.004;2022-09-09T12:58:47;100740.81;;;17.34;100.00
48668;BME280;34453;52.198;5.004;2022-09-09T13:01:27;100747.34;;;17.38;100.00
48668;BME280;34453;52.198;5.004;2022-09-09T13:03:54;100736.34;;;17.35;100.00
48668;BME280;34453;52.198;5.004;2022-09-09T13:06:27;100735.41;;;17.43;100.00
48668;BME280;34453;52.198;5.004;2022-09-09T13:08:54;100741.59;;;17.50;100.00
48668;BME280;34453;52.198;5.004;2022-09-09T13:11:35;100738.50;;;17.46;100.00
48668;BME280;34453;52.198;5.004;2022-09-09T13:14:02;100736.25;;;17.43;100.00
48668;BME280;34453;52.198;5.004;2022-09-09T13:16:31;100738.44;;;17.39;100.00
48668;BME280;34453;52.198;5.004;2022-09-09T13:19:14;100729.69;;;17.39;100.00
48668;BME280;34453;52.198;5.004;2022-09-09T13:21:41;100736.91;;;17.30;100.00
48668;BME280;34453;52.198;5.004;2022-09-09T13:26:58;100747.06;;;17.12;100.00
48668;BME280;34453;52.198;5.004;2022-09-09T13:29:26;100756.00;;;17.11;100.00
48668;BME280;34453;52.198;5.004;2022-09-09T13:31:53;100748.41;;;17.01;100.00
48668;BME280;34453;52.198;5.004;2022-09-09T13:34:29;100739.59;;;17.15;100.00
48668;BME280;34453;52.198;5.004;2022-09-09T13:37:06;100753.38;;;17.11;100.00
48668;BME280;34453;52.198;5.004;2022-09-09T13:39:34;100755.38;;;17.09;100.00
48668;BME280;34453;52.198;5.004;2022-09-09T13:42:03;100749.72;;;17.12;100.00
48668;BME280;34453;52.198;5.004;2022-09-09T13:44:34;100760.91;;;17.14;100.00
48668;BME280;34453;52.198;5.004;2022-09-09T13:49:39;100756.66;;;17.13;100.00
48668;BME280;34453;52.198;5.004;2022-09-09T13:52:12;100744.31;;;17.20;100.00
48668;BME280;34453;52.198;5.004;2022-09-09T13:54:39;100748.41;;;17.23;100.00
48668;BME280;34453;52.198;5.004;2022-09-09T13:57:23;100750.25;;;17.22;100.00
48668;BME280;34453;52.198;5.004;2022-09-09T13:59:52;100768.75;;;17.22;100.00
48668;BME280;34453;52.198;5.004;2022-09-09T14:02:21;100760.75;;;17.15;100.00
48668;BME280;34453;52.198;5.004;2022-09-09T14:04:49;100760.91;;;17.14;100.00
48668;BME280;34453;52.198;5.004;2022-09-09T14:07:21;100755.75;;;17.06;100.00
48668;BME280;34453;52.198;5.004;2022-09-09T14:09:47;100750.81;;;17.03;100.00
48668;BME280;34453;52.198;5.004;2022-09-09T14:12:16;100761.06;;;17.06;100.00
48668;BME280;34453;52.198;5.004;2022-09-09T14:14:42;100748.75;;;16.98;100.00
48668;BME280;34453;52.198;5.004;2022-09-09T14:17:09;100752.00;;;17.15;100.00
48668;BME280;34453;52.198;5.004;2022-09-09T14:19:36;100747.09;;;17.33;100.00
48668;BME280;34453;52.198;5.004;2022-09-09T14:22:04;100751.91;;;17.45;100.00
48668;BME280;34453;52.198;5.004;2022-09-09T14:24:30;100741.09;;;17.61;100.00
48668;BME280;34453;52.198;5.004;2022-09-09T14:26:56;100744.34;;;17.85;100.00
48668;BME280;34453;52.198;5.004;2022-09-09T14:29:26;100738.25;;;17.84;100.00
48668;BME280;34453;52.198;5.004;2022-09-09T14:31:53;100727.72;;;17.91;100.00
48668;BME280;34453;52.198;5.004;2022-09-09T14:34:19;100731.84;;;18.00;100.00
48668;BME280;34453;52.198;5.004;2022-09-09T14:36:46;100733.09;;;18.04;100.00
48668;BME280;34453;52.198;5.004;2022-09-09T14:39:13;100725.06;;;17.91;100.00
48668;BME280;34453;52.198;5.004;2022-09-09T14:41:40;100726.47;;;17.87;100.00
48668;BME280;34453;52.198;5.004;2022-09-09T14:44:07;100728.53;;;17.91;100.00
48668;BME280;34453;52.198;5.004;2022-09-09T14:46:35;100727.31;;;17.94;100.00
48668;BME280;34453;52.198;5.004;2022-09-09T14:49:02;100731.94;;;17.85;100.00
48668;BME280;34453;52.198;5.004;2022-09-09T14:51:31;100731.66;;;17.80;100.00
48668;BME280;34453;52.198;5.004;2022-09-09T14:53:59;100725.06;;;17.69;100.00
48668;BME280;34453;52.198;5.004;2022-09-09T14:56:31;100735.53;;;17.56;100.00
48668;BME280;34453;52.198;5.004;2022-09-09T14:59:01;100746.44;;;17.46;100.00
48668;BME280;34453;52.198;5.004;2022-09-09T15:01:30;100744.91;;;17.37;100.00
48668;BME280;34453;52.198;5.004;2022-09-09T15:04:01;100735.31;;;17.14;100.00
48668;BME280;34453;52.198;5.004;2022-09-09T15:06:31;100754.56;;;17.08;100.00